Time;durP1;ratioP1;P1;durP2;ratioP2;P2;SDS_P1;SDS_P2;PMS_P1;PMS_P2;Temp;Humidity;BMP_temperature;BMP_pressure;BME280_temperature;BME280_humidity;BME280_pressure;Samples;Min_cycle;Max_cycle;Signal;HPM_P1;HPM_P2
2024/03/02 00:00:20;;;;;;;6.97;5.18;;;8.70;99.90;;;;;;5054090;28;20225;-77
2024/03/02 00:02:48;;;;;;;5.60;5.13;;;8.70;99.90;;;;;;5051579;28;20229;-75
2024/03/02 00:05:16;;;;;;;7.63;6.80;;;8.70;99.90;;;;;;5054706;28;20902;-76
2024/03/02 00:07:45;;;;;;;10.90;8.80;;;8.70;99.90;;;;;;5059854;28;20304;-76
2024/03/02 00:10:20;;;;;;;12.57;7.82;;;8.70;99.90;;;;;;5059631;28;20273;-75
2024/03/02 00:12:49;;;;;;;9.63;7.82;;;8.70;99.90;;;;;;5059664;28;20951;-75
2024/03/02 00:15:42;;;;;;;8.40;6.13;;;8.60;99.90;;;;;;5059972;28;20247;-76
2024/03/02 00:18:11;;;;;;;7.90;6.70;;;8.60;99.90;;;;;;5061104;28;20293;-77
2024/03/02 00:20:38;;;;;;;7.95;6.20;;;8.60;99.90;;;;;;5060390;28;20206;-75
2024/03/02 00:23:06;;;;;;;6.90;6.15;;;8.60;99.90;;;;;;5042487;28;20242;-74
2024/03/02 00:25:40;;;;;;;6.30;5.70;;;8.60;99.90;;;;;;5043745;28;20634;-74
2024/03/02 00:28:15;;;;;;;5.93;5.40;;;8.60;99.90;;;;;;5043647;28;20220;-74
2024/03/02 00:30:54;;;;;;;5.15;4.68;;;8.60;99.90;;;;;;5041484;28;20291;-75
2024/03/02 00:33:22;;;;;;;5.85;4.85;;;8.60;99.90;;;;;;5057853;28;20331;-77
2024/03/02 00:35:50;;;;;;;4.95;4.55;;;8.60;99.90;;;;;;5060938;28;20233;-74
2024/03/02 00:38:17;;;;;;;4.50;4.20;;;8.60;99.90;;;;;;5034135;28;20225;-76
2024/03/02 00:40:45;;;;;;;3.80;3.50;;;8.60;99.90;;;;;;5042287;28;20611;-74
2024/03/02 00:43:39;;;;;;;4.22;3.63;;;8.60;99.90;;;;;;5036928;28;20878;-75
2024/03/02 00:46:07;;;;;;;3.67;3.30;;;8.60;99.90;;;;;;5039447;28;20313;-74
2024/03/02 00:48:35;;;;;;;3.47;3.15;;;8.60;99.90;;;;;;5039097;28;20984;-76
2024/03/02 00:51:04;;;;;;;4.10;3.80;;;8.60;99.90;;;;;;5037970;28;20222;-75
2024/03/02 00:53:32;;;;;;;4.03;3.63;;;8.60;99.90;;;;;;5039009;28;20202;-75
2024/03/02 00:56:00;;;;;;;3.72;3.50;;;8.50;99.90;;;;;;5034765;28;20217;-74
2024/03/02 00:58:28;;;;;;;4.00;3.70;;;8.50;99.90;;;;;;5038465;28;20680;-74
2024/03/02 01:00:55;;;;;;;4.18;3.78;;;8.50;99.90;;;;;;5038633;28;20260;-76
2024/03/02 01:03:22;;;;;;;4.28;3.88;;;8.50;99.90;;;;;;5037219;28;20223;-74
2024/03/02 01:05:49;;;;;;;4.82;4.43;;;8.40;99.90;;;;;;5040857;28;20683;-75
2024/03/02 01:08:16;;;;;;;4.80;4.40;;;8.40;99.90;;;;;;5058108;28;20317;-75
2024/03/02 01:10:43;;;;;;;5.78;5.28;;;8.40;99.90;;;;;;5056843;28;20214;-75
2024/03/02 01:13:10;;;;;;;6.35;5.57;;;8.40;99.90;;;;;;5061353;28;20314;-76
2024/03/02 01:15:38;;;;;;;5.78;5.28;;;8.40;99.90;;;;;;5059599;28;20264;-75
2024/03/02 01:18:06;;;;;;;5.50;5.00;;;8.30;99.90;;;;;;5059773;28;20214;-75
2024/03/02 01:20:33;;;;;;;6.00;5.50;;;8.30;99.90;;;;;;5060936;28;20756;-77
2024/03/02 01:23:00;;;;;;;6.22;5.72;;;8.30;99.90;;;;;;5059863;28;20230;-76
2024/03/02 01:25:27;;;;;;;6.80;5.22;;;8.30;99.90;;;;;;5060504;28;20880;-75
2024/03/02 01:27:54;;;;;;;5.43;4.95;;;8.30;99.90;;;;;;5059948;28;20245;-76
2024/03/02 01:30:21;;;;;;;5.53;4.93;;;8.30;99.90;;;;;;5055941;28;20230;-75
2024/03/02 01:32:49;;;;;;;4.35;4.00;;;8.30;99.90;;;;;;5060878;28;20219;-75
2024/03/02 01:35:16;;;;;;;5.35;4.32;;;8.30;99.90;;;;;;5062180;28;20913;-76
2024/03/02 01:37:43;;;;;;;4.38;3.97;;;8.30;99.90;;;;;;5061622;28;20221;-76
2024/03/02 01:40:12;;;;;;;4.53;4.13;;;8.30;99.90;;;;;;5060563;28;20624;-75
2024/03/02 01:42:39;;;;;;;3.88;3.53;;;8.30;99.90;;;;;;5061150;28;20294;-75
2024/03/02 01:45:07;;;;;;;3.58;3.28;;;8.30;99.90;;;;;;5060409;28;20214;-75
2024/03/02 01:47:34;;;;;;;4.55;4.15;;;8.30;99.90;;;;;;5055970;28;20275;-75
2024/03/02 01:50:02;;;;;;;4.78;4.38;;;8.30;99.90;;;;;;5060559;28;20246;-75
2024/03/02 01:52:29;;;;;;;5.13;4.72;;;8.20;99.90;;;;;;5058326;28;20231;-75
2024/03/02 01:54:57;;;;;;;4.97;4.53;;;8.20;99.90;;;;;;5060477;28;20283;-74
2024/03/02 01:57:24;;;;;;;4.78;4.47;;;8.20;99.90;;;;;;5060287;28;20802;-75
2024/03/02 01:59:51;;;;;;;4.60;4.30;;;8.20;99.90;;;;;;5061147;28;20317;-75
2024/03/02 02:02:18;;;;;;;4.72;4.32;;;8.20;99.90;;;;;;5058660;28;20226;-76
2024/03/02 02:04:45;;;;;;;4.93;4.53;;;8.20;99.90;;;;;;5061943;28;20218;-75
2024/03/02 02:07:14;;;;;;;5.43;5.00;;;8.20;99.90;;;;;;5061006;28;20242;-75
2024/03/02 02:09:42;;;;;;;5.05;4.65;;;8.20;99.90;;;;;;5060646;28;20230;-77
2024/03/02 02:12:09;;;;;;;5.60;5.10;;;8.20;99.90;;;;;;5059446;28;20226;-75
2024/03/02 02:14:36;;;;;;;4.50;4.20;;;8.20;99.90;;;;;;5060337;28;20197;-74
2024/03/02 02:17:03;;;;;;;4.82;4.43;;;8.20;99.90;;;;;;5061443;28;20221;-75
2024/03/02 02:19:30;;;;;;;5.78;4.90;;;8.20;99.90;;;;;;5061788;28;20275;-74
2024/03/02 02:21:58;;;;;;;5.70;5.20;;;8.20;99.90;;;;;;5061897;28;20267;-77
2024/03/02 02:24:25;;;;;;;4.97;4.57;;;8.20;99.90;;;;;;5061786;28;20238;-76
2024/03/02 02:26:52;;;;;;;4.30;4.00;;;8.20;99.90;;;;;;5060838;28;20225;-74
2024/03/02 02:29:19;;;;;;;5.20;4.70;;;8.20;99.90;;;;;;5062666;28;20314;-74
2024/03/02 02:31:46;;;;;;;3.60;3.40;;;8.20;99.90;;;;;;5060932;28;20677;-74
2024/03/02 02:34:14;;;;;;;4.15;3.63;;;8.20;99.90;;;;;;5057627;28;20282;-75
2024/03/02 02:36:42;;;;;;;4.60;4.18;;;8.10;99.90;;;;;;5060556;28;20852;-75
2024/03/02 02:39:14;;;;;;;6.18;5.20;;;8.20;99.90;;;;;;5064392;28;20226;-75
2024/03/02 02:41:41;;;;;;;6.63;5.97;;;8.20;99.90;;;;;;5065199;28;20248;-74
2024/03/02 02:44:08;;;;;;;5.85;5.35;;;8.20;99.90;;;;;;5061644;28;20272;-76
2024/03/02 02:46:35;;;;;;;6.53;5.85;;;8.20;99.90;;;;;;5059769;28;20253;-75
2024/03/02 02:49:02;;;;;;;6.18;5.63;;;8.20;99.90;;;;;;5060549;28;20257;-75
2024/03/02 02:51:29;;;;;;;5.53;5.07;;;8.20;99.90;;;;;;5060356;28;20217;-77
2024/03/02 02:53:56;;;;;;;5.10;4.70;;;8.20;99.90;;;;;;5056201;28;20264;-74
2024/03/02 02:56:24;;;;;;;3.92;3.63;;;8.20;99.90;;;;;;5059613;28;20254;-76
2024/03/02 02:58:51;;;;;;;3.40;3.20;;;8.20;99.90;;;;;;5062930;28;20258;-74
2024/03/02 03:01:18;;;;;;;3.30;3.10;;;8.20;99.90;;;;;;5059657;28;20262;-74
2024/03/02 03:03:45;;;;;;;3.17;2.97;;;8.20;99.90;;;;;;5061558;28;20245;-77
2024/03/02 03:06:12;;;;;;;2.83;2.63;;;8.20;99.90;;;;;;5058122;28;20252;-75
2024/03/02 03:08:39;;;;;;;2.83;2.63;;;8.20;99.90;;;;;;5063373;28;20275;-77
2024/03/02 03:11:06;;;;;;;4.00;3.20;;;8.20;99.90;;;;;;5061194;28;20295;-75
2024/03/02 03:13:35;;;;;;;3.13;2.92;;;8.20;99.90;;;;;;5062642;28;20723;-74
2024/03/02 03:16:02;;;;;;;3.83;3.33;;;8.10;99.90;;;;;;5062731;28;20769;-75
2024/03/02 03:18:29;;;;;;;3.22;3.03;;;8.10;99.90;;;;;;5061379;28;20229;-76
2024/03/02 03:20:56;;;;;;;3.67;3.38;;;8.10;99.90;;;;;;5059254;28;20230;-74
2024/03/02 03:23:23;;;;;;;3.63;3.40;;;8.10;99.90;;;;;;5062560;28;20222;-74
2024/03/02 03:25:50;;;;;;;3.70;3.40;;;8.10;99.90;;;;;;5061970;28;21203;-73
2024/03/02 03:28:18;;;;;;;3.63;3.33;;;8.10;99.90;;;;;;5038079;28;20231;-75
2024/03/02 03:30:46;;;;;;;3.17;2.97;;;8.10;99.90;;;;;;5041280;28;20635;-75
2024/03/02 03:33:14;;;;;;;3.28;3.08;;;8.10;99.90;;;;;;5038183;28;20254;-74
2024/03/02 03:35:40;;;;;;;2.50;2.33;;;8.10;99.90;;;;;;5037389;28;20195;-74
2024/03/02 03:38:07;;;;;;;3.15;2.92;;;8.10;99.90;;;;;;5036459;28;20230;-74
2024/03/02 03:40:34;;;;;;;2.55;2.45;;;8.10;99.90;;;;;;5038427;28;20300;-77
2024/03/02 03:43:01;;;;;;;3.08;2.78;;;8.10;99.90;;;;;;5040982;28;20246;-75
2024/03/02 03:45:28;;;;;;;3.00;2.80;;;8.10;99.90;;;;;;5042958;28;20659;-75
2024/03/02 03:47:56;;;;;;;3.17;2.90;;;8.00;99.90;;;;;;5057826;28;20329;-75
2024/03/02 03:50:23;;;;;;;3.20;3.00;;;8.00;99.90;;;;;;5064171;28;20311;-74
2024/03/02 03:52:50;;;;;;;3.45;3.10;;;8.00;99.90;;;;;;5046365;28;20694;-75
2024/03/02 03:55:17;;;;;;;3.58;3.28;;;8.00;99.90;;;;;;5039088;28;20254;-77
2024/03/02 03:57:44;;;;;;;3.42;3.15;;;8.00;99.90;;;;;;5058226;28;20245;-75
2024/03/02 04:00:12;;;;;;;4.47;3.00;;;8.00;99.90;;;;;;5064462;28;20222;-75
2024/03/02 04:02:39;;;;;;;3.28;3.08;;;8.00;99.90;;;;;;5060474;28;20249;-75
2024/03/02 04:05:10;;;;;;;3.25;3.05;;;8.00;99.90;;;;;;5061593;28;20814;-77
2024/03/02 04:07:40;;;;;;;3.50;3.20;;;8.00;99.90;;;;;;5056620;28;20232;-76
2024/03/02 04:10:12;;;;;;;3.22;3.03;;;8.00;99.90;;;;;;5060549;28;20226;-73
2024/03/02 04:12:39;;;;;;;3.67;3.38;;;8.00;99.90;;;;;;5060511;28;20225;-75
2024/03/02 04:15:07;;;;;;;3.90;3.53;;;7.90;99.90;;;;;;5062920;28;20272;-76
2024/03/02 04:17:35;;;;;;;4.40;4.00;;;7.90;99.90;;;;;;5062340;28;20281;-75
2024/03/02 04:20:04;;;;;;;9.23;3.88;;;7.90;99.90;;;;;;5063929;28;20726;-75
2024/03/02 04:22:35;;;;;;;4.03;3.67;;;7.90;99.90;;;;;;5063661;28;20222;-75
2024/03/02 04:25:04;;;;;;;4.32;4.00;;;7.90;99.90;;;;;;5059925;28;20217;-75
2024/03/02 04:27:32;;;;;;;3.47;3.17;;;7.90;99.90;;;;;;5070880;28;20213;-74
2024/03/02 04:30:00;;;;;;;3.63;3.33;;;7.90;99.90;;;;;;5067205;28;20958;-74
2024/03/02 04:32:27;;;;;;;3.50;3.30;;;7.90;99.90;;;;;;5064491;28;20221;-76
2024/03/02 04:34:54;;;;;;;3.60;3.30;;;7.90;99.90;;;;;;5062985;28;20221;-75
2024/03/02 04:37:21;;;;;;;4.22;3.42;;;7.90;99.90;;;;;;5061255;28;20222;-77
2024/03/02 04:39:49;;;;;;;3.17;2.97;;;7.90;99.90;;;;;;5062416;28;20228;-76
2024/03/02 04:42:16;;;;;;;2.88;2.67;;;8.00;99.90;;;;;;5060822;28;20245;-74
2024/03/02 04:44:43;;;;;;;2.78;2.65;;;7.90;99.90;;;;;;5065702;28;20348;-75
2024/03/02 04:47:10;;;;;;;2.95;2.75;;;8.00;99.90;;;;;;5061511;28;20220;-76
2024/03/02 04:49:37;;;;;;;2.95;2.75;;;8.00;99.90;;;;;;5060449;28;20267;-75
2024/03/02 04:52:04;;;;;;;4.38;3.97;;;7.90;99.90;;;;;;5058059;28;20238;-74
2024/03/02 04:54:31;;;;;;;3.83;3.28;;;7.90;99.90;;;;;;5060718;28;20226;-74
2024/03/02 04:57:00;;;;;;;3.35;3.15;;;7.90;99.90;;;;;;5053779;28;20230;-76
2024/03/02 04:59:26;;;;;;;3.70;3.38;;;8.00;99.90;;;;;;5062248;28;20226;-75
2024/03/02 05:01:53;;;;;;;2.90;2.70;;;8.00;99.90;;;;;;5053942;28;20267;-75
2024/03/02 05:04:20;;;;;;;3.00;2.80;;;8.00;99.90;;;;;;5061197;28;20344;-75
2024/03/02 05:06:52;;;;;;;3.10;2.90;;;8.00;99.90;;;;;;5057728;28;20222;-75
2024/03/02 05:09:19;;;;;;;2.90;2.70;;;8.00;99.90;;;;;;5062433;28;20222;-74
2024/03/02 05:12:15;;;;;;;3.22;3.03;;;8.00;99.90;;;;;;5059008;28;20561;-74
2024/03/02 05:14:43;;;;;;;3.20;3.00;;;8.00;99.90;;;;;;5060986;28;20225;-75
2024/03/02 05:17:11;;;;;;;3.10;2.90;;;8.00;99.90;;;;;;5059471;28;20308;-77
2024/03/02 05:19:38;;;;;;;3.58;3.28;;;8.00;99.90;;;;;;5059492;28;20301;-76
2024/03/02 05:22:05;;;;;;;2.47;2.38;;;8.00;99.90;;;;;;5059870;28;20238;-76
2024/03/02 05:24:32;;;;;;;3.10;2.90;;;8.00;99.90;;;;;;5061484;28;20218;-74
2024/03/02 05:26:59;;;;;;;2.75;2.63;;;7.90;99.90;;;;;;5060354;28;20238;-76
2024/03/02 05:29:26;;;;;;;3.00;2.70;;;7.90;99.90;;;;;;5062337;28;20291;-77
2024/03/02 05:31:54;;;;;;;3.25;3.00;;;7.90;99.90;;;;;;5051012;28;20324;-76
2024/03/02 05:34:21;;;;;;;3.00;2.80;;;7.90;99.90;;;;;;5041100;28;20250;-76
2024/03/02 05:36:48;;;;;;;3.00;2.80;;;7.90;99.90;;;;;;5044826;28;20245;-74
2024/03/02 05:39:15;;;;;;;2.42;2.22;;;7.90;99.90;;;;;;5059809;28;20299;-74
2024/03/02 05:41:42;;;;;;;2.33;2.20;;;7.90;99.90;;;;;;5051481;28;20265;-75
2024/03/02 05:44:09;;;;;;;2.60;2.40;;;7.90;99.90;;;;;;5040913;28;20223;-75
2024/03/02 05:46:36;;;;;;;2.97;2.78;;;7.90;99.90;;;;;;5040302;28;20300;-75
2024/03/02 05:49:04;;;;;;;2.63;2.50;;;7.80;99.90;;;;;;5040999;28;20254;-74
2024/03/02 05:51:31;;;;;;;2.28;2.17;;;7.80;99.90;;;;;;5043327;28;20304;-74
2024/03/02 05:53:58;;;;;;;2.80;2.60;;;7.80;99.90;;;;;;5059796;28;20672;-74
2024/03/02 05:56:25;;;;;;;2.60;2.50;;;7.80;99.90;;;;;;5059211;28;20280;-74
2024/03/02 05:59:06;;;;;;;2.95;2.75;;;7.80;99.90;;;;;;5058403;28;20269;-75
2024/03/02 06:01:34;;;;;;;3.40;3.10;;;7.80;99.90;;;;;;5059057;28;20235;-75
2024/03/02 06:04:01;;;;;;;3.38;3.00;;;7.80;99.90;;;;;;5060502;28;20246;-74
2024/03/02 06:06:30;;;;;;;3.22;3.03;;;7.80;99.90;;;;;;5061157;28;20257;-74
2024/03/02 06:08:57;;;;;;;3.30;3.10;;;7.80;99.90;;;;;;5060016;28;20385;-75
2024/03/02 06:11:24;;;;;;;3.50;3.10;;;7.80;99.90;;;;;;5061163;28;20273;-76
2024/03/02 06:13:51;;;;;;;3.50;3.30;;;7.90;99.90;;;;;;5043093;28;20233;-77
2024/03/02 06:16:18;;;;;;;4.05;3.75;;;7.90;99.90;;;;;;5044057;28;20641;-75
2024/03/02 06:18:45;;;;;;;3.25;3.05;;;8.00;99.90;;;;;;5056186;28;20222;-75
2024/03/02 06:21:12;;;;;;;3.88;3.58;;;8.00;99.90;;;;;;5055712;28;20277;-75
2024/03/02 06:23:40;;;;;;;3.10;2.90;;;8.10;99.90;;;;;;5058150;28;20802;-75
2024/03/02 06:26:07;;;;;;;2.95;2.75;;;8.10;99.90;;;;;;5054160;28;20693;-75
2024/03/02 06:28:34;;;;;;;2.90;2.70;;;8.20;99.90;;;;;;5057520;28;21729;-75
2024/03/02 06:31:02;;;;;;;2.88;2.67;;;8.20;99.90;;;;;;5055977;28;20295;-75
2024/03/02 06:33:29;;;;;;;3.17;2.95;;;8.30;99.90;;;;;;5057047;28;20618;-75
2024/03/02 06:35:56;;;;;;;2.83;2.63;;;8.30;99.90;;;;;;5056920;28;20210;-75
2024/03/02 06:38:23;;;;;;;3.80;3.50;;;8.40;99.90;;;;;;5037480;28;20219;-75
2024/03/02 06:40:52;;;;;;;3.97;3.67;;;8.50;99.90;;;;;;5035760;28;20756;-75
2024/03/02 06:43:23;;;;;;;3.53;3.33;;;8.60;99.90;;;;;;5057359;28;20271;-74
2024/03/02 06:45:50;;;;;;;3.63;3.33;;;8.70;99.90;;;;;;5056955;28;20287;-74
2024/03/02 06:48:19;;;;;;;3.88;3.50;;;8.80;99.90;;;;;;5055780;28;20579;-75
2024/03/02 06:50:47;;;;;;;4.55;4.20;;;8.90;99.90;;;;;;5057872;28;20806;-76
2024/03/02 06:53:17;;;;;;;4.75;4.25;;;9.00;99.90;;;;;;5055929;28;20301;-77
2024/03/02 06:55:44;;;;;;;4.38;3.80;;;9.10;99.90;;;;;;5057157;28;21696;-75
2024/03/02 06:58:14;;;;;;;6.30;4.97;;;9.20;99.90;;;;;;5056054;28;20313;-74
2024/03/02 07:00:41;;;;;;;4.13;3.83;;;9.30;99.90;;;;;;5057731;28;20202;-75
2024/03/02 07:03:08;;;;;;;4.40;4.10;;;9.30;99.90;;;;;;5054779;28;20314;-74
2024/03/02 07:05:36;;;;;;;4.68;4.22;;;9.40;99.90;;;;;;5060596;28;20242;-75
2024/03/02 07:08:05;;;;;;;6.68;4.60;;;9.50;99.90;;;;;;5055812;28;20294;-75
2024/03/02 07:10:31;;;;;;;5.18;4.68;;;9.50;99.90;;;;;;5060977;28;20222;-76
2024/03/02 07:12:58;;;;;;;6.40;5.90;;;9.60;99.90;;;;;;5057066;28;20279;-75
2024/03/02 07:15:44;;;;;;;6.43;5.78;;;9.70;99.90;;;;;;5059078;28;20252;-74
2024/03/02 07:18:12;;;;;;;8.45;6.95;;;9.80;99.90;;;;;;5059563;28;20300;-76
2024/03/02 07:20:39;;;;;;;7.72;6.93;;;9.90;99.90;;;;;;5062099;28;20203;-74
2024/03/02 07:23:06;;;;;;;9.43;7.82;;;9.90;99.90;;;;;;5061017;28;20249;-75
2024/03/02 07:25:33;;;;;;;8.00;7.15;;;9.90;99.90;;;;;;5063194;28;20245;-76
2024/03/02 07:28:00;;;;;;;7.53;6.60;;;9.90;99.90;;;;;;5063299;28;20295;-76
2024/03/02 07:30:29;;;;;;;6.88;6.25;;;9.80;99.90;;;;;;5066110;28;20878;-75
2024/03/02 07:32:56;;;;;;;7.65;6.50;;;9.80;99.90;;;;;;5063332;28;20308;-75
2024/03/02 07:35:26;;;;;;;6.72;6.03;;;9.80;99.90;;;;;;5058938;28;20295;-75
2024/03/02 07:37:53;;;;;;;6.70;6.03;;;9.80;99.90;;;;;;5064277;28;20226;-74
2024/03/02 07:40:20;;;;;;;10.82;6.82;;;9.80;99.90;;;;;;5065590;28;20769;-75
2024/03/02 07:42:47;;;;;;;6.22;5.72;;;9.80;99.90;;;;;;5063391;28;20655;-76
2024/03/02 07:45:14;;;;;;;5.88;5.28;;;9.80;99.90;;;;;;5060021;28;20237;-75
2024/03/02 07:47:43;;;;;;;5.82;5.28;;;9.80;99.90;;;;;;5063984;28;20225;-75
2024/03/02 07:50:10;;;;;;;4.97;4.50;;;9.70;99.90;;;;;;5064328;28;20214;-77
2024/03/02 07:52:37;;;;;;;5.82;5.25;;;9.80;99.90;;;;;;5062050;28;20295;-75
2024/03/02 07:55:05;;;;;;;5.47;5.03;;;9.80;99.90;;;;;;5061920;28;20207;-74
2024/03/02 07:57:33;;;;;;;5.80;5.15;;;9.70;99.90;;;;;;5062839;28;20311;-75
2024/03/02 08:00:00;;;;;;;6.80;4.57;;;9.70;99.90;;;;;;5058568;28;20226;-77
2024/03/02 08:02:27;;;;;;;5.97;5.38;;;9.70;99.90;;;;;;5058826;28;20710;-75
2024/03/02 08:04:55;;;;;;;5.07;4.55;;;9.70;99.90;;;;;;5057518;28;20643;-76
2024/03/02 08:07:22;;;;;;;5.85;5.28;;;9.70;99.90;;;;;;5061826;28;20249;-75
2024/03/02 08:09:49;;;;;;;4.90;4.50;;;9.80;99.90;;;;;;5058476;28;20237;-75
2024/03/02 08:12:16;;;;;;;6.13;5.47;;;9.80;99.90;;;;;;5055748;28;20230;-78
2024/03/02 08:14:43;;;;;;;7.18;6.47;;;9.90;99.90;;;;;;5056461;28;20256;-75
2024/03/02 08:17:11;;;;;;;6.03;5.53;;;9.90;99.90;;;;;;5058516;28;20218;-76
2024/03/02 08:19:38;;;;;;;5.85;5.32;;;9.80;99.90;;;;;;5057722;28;20308;-75
2024/03/02 08:22:07;;;;;;;6.90;5.35;;;9.80;99.90;;;;;;5056574;28;20249;-76
2024/03/02 08:24:34;;;;;;;6.57;5.97;;;9.80;99.90;;;;;;5057676;28;20225;-75
2024/03/02 08:27:01;;;;;;;5.55;5.05;;;9.80;99.90;;;;;;5055844;28;20323;-76
2024/03/02 08:29:28;;;;;;;6.07;4.70;;;10.00;99.90;;;;;;5060281;28;20254;-76
2024/03/02 08:31:55;;;;;;;6.32;5.72;;;10.10;99.90;;;;;;5058233;28;20309;-76
2024/03/02 08:34:22;;;;;;;5.85;5.28;;;10.10;99.90;;;;;;5060305;28;20218;-75
2024/03/02 08:36:49;;;;;;;6.28;5.78;;;10.20;99.90;;;;;;5060315;28;20949;-75
2024/03/02 08:39:19;;;;;;;5.55;5.10;;;10.10;99.90;;;;;;5062567;28;20267;-76
2024/03/02 08:41:47;;;;;;;5.90;5.40;;;10.20;99.90;;;;;;5059452;28;20275;-76
2024/03/02 08:44:14;;;;;;;5.57;5.15;;;10.20;99.90;;;;;;5059927;28;20275;-77
2024/03/02 08:46:41;;;;;;;6.63;6.00;;;10.10;99.90;;;;;;5052049;28;20249;-77
2024/03/02 08:49:08;;;;;;;4.47;4.18;;;10.10;99.90;;;;;;5059318;28;20214;-77
2024/03/02 08:51:35;;;;;;;5.45;4.95;;;10.10;99.90;;;;;;5061834;28;20309;-77
2024/03/02 08:54:03;;;;;;;5.63;4.80;;;10.10;99.90;;;;;;5061760;28;20240;-77
2024/03/02 08:56:32;;;;;;;5.20;4.70;;;10.20;99.90;;;;;;5059805;28;20230;-76
2024/03/02 08:58:59;;;;;;;5.00;4.57;;;10.30;99.90;;;;;;5061818;28;20755;-78
2024/03/02 09:01:26;;;;;;;5.40;4.90;;;10.30;99.90;;;;;;5059716;28;20297;-77
2024/03/02 09:03:53;;;;;;;4.70;4.30;;;10.40;99.90;;;;;;5059567;28;20293;-75
2024/03/02 09:06:21;;;;;;;5.40;4.90;;;10.60;99.90;;;;;;5054006;28;20258;-77
2024/03/02 09:08:49;;;;;;;5.70;5.20;;;10.80;99.90;;;;;;5055583;28;20293;-76
2024/03/02 09:11:16;;;;;;;5.18;4.75;;;11.00;99.90;;;;;;5061017;28;20221;-77
2024/03/02 09:13:45;;;;;;;4.25;3.85;;;11.20;99.90;;;;;;5060847;28;20339;-77
2024/03/02 09:16:11;;;;;;;4.80;4.35;;;11.40;99.90;;;;;;5059614;28;20194;-77
2024/03/02 09:18:39;;;;;;;5.68;4.43;;;11.60;99.90;;;;;;5059966;28;20657;-76
2024/03/02 09:21:06;;;;;;;4.50;4.10;;;11.70;99.90;;;;;;5057648;28;20202;-76
2024/03/02 09:23:34;;;;;;;5.05;4.22;;;11.90;99.90;;;;;;5056987;28;20206;-78
2024/03/02 09:26:01;;;;;;;4.32;3.92;;;12.00;99.90;;;;;;5051975;28;20300;-76
2024/03/02 09:28:28;;;;;;;7.72;4.75;;;12.50;99.90;;;;;;5053125;28;20202;-77
2024/03/02 09:30:56;;;;;;;4.75;4.28;;;12.80;99.90;;;;;;5056243;28;20275;-76
2024/03/02 09:33:23;;;;;;;4.50;4.10;;;13.00;99.90;;;;;;5040253;28;20211;-78
2024/03/02 09:35:50;;;;;;;4.15;3.80;;;13.00;99.90;;;;;;5042762;28;20329;-76
2024/03/02 09:38:17;;;;;;;4.88;4.20;;;12.90;99.90;;;;;;5058189;28;20233;-77
2024/03/02 09:40:44;;;;;;;5.30;4.70;;;13.30;99.90;;;;;;5056626;28;20660;-77
2024/03/02 09:43:11;;;;;;;4.47;3.70;;;13.40;99.90;;;;;;5061038;28;20303;-77
2024/03/02 09:45:39;;;;;;;4.65;4.25;;;13.30;99.90;;;;;;5056659;28;20310;-78
2024/03/02 09:48:08;;;;;;;5.43;4.43;;;13.30;99.90;;;;;;5056313;28;20241;-77
2024/03/02 09:50:35;;;;;;;5.00;4.20;;;13.40;99.90;;;;;;5052501;28;20307;-77
2024/03/02 09:53:03;;;;;;;4.50;4.10;;;13.90;99.90;;;;;;5038667;28;20761;-77
2024/03/02 09:55:30;;;;;;;4.75;3.83;;;14.00;99.90;;;;;;5036551;28;20219;-77
2024/03/02 09:57:57;;;;;;;4.68;4.32;;;14.10;99.90;;;;;;5055824;28;20700;-79
2024/03/02 10:00:25;;;;;;;4.38;3.97;;;14.10;99.90;;;;;;5059139;28;20222;-77
2024/03/02 10:02:52;;;;;;;4.65;4.10;;;14.10;99.90;;;;;;5053634;28;20236;-77
2024/03/02 10:05:28;;;;;;;4.07;3.50;;;14.10;99.90;;;;;;5057013;28;20222;-78
2024/03/02 10:08:02;;;;;;;4.57;3.63;;;13.90;99.90;;;;;;5057558;28;20862;-78
2024/03/02 10:10:41;;;;;;;7.80;4.50;;;13.80;99.90;;;;;;5058356;28;20583;-77
2024/03/02 10:13:09;;;;;;;4.45;4.05;;;13.70;99.90;;;;;;5056875;28;20740;-78
2024/03/02 10:15:37;;;;;;;4.63;4.07;;;13.40;99.90;;;;;;5059316;28;20194;-77
2024/03/02 10:18:05;;;;;;;4.72;4.13;;;13.40;99.90;;;;;;5057546;28;20236;-77
2024/03/02 10:20:33;;;;;;;5.57;4.97;;;13.30;99.90;;;;;;5061172;28;20272;-77
2024/03/02 10:23:16;;;;;;;5.10;4.65;;;13.40;99.90;;;;;;5064048;28;20222;-77
2024/03/02 10:25:45;;;;;;;4.90;4.18;;;13.40;99.90;;;;;;5062687;28;20217;-77
2024/03/02 10:28:11;;;;;;;5.13;4.38;;;13.30;99.90;;;;;;5055657;28;20226;-78
2024/03/02 10:30:38;;;;;;;6.70;4.63;;;13.20;99.90;;;;;;5059716;28;20688;-77
2024/03/02 10:33:07;;;;;;;5.40;4.78;;;13.10;99.90;;;;;;5055473;28;20319;-77
2024/03/02 10:35:36;;;;;;;5.22;4.35;;;13.00;99.90;;;;;;5057606;28;20577;-77
2024/03/02 10:38:05;;;;;;;6.63;5.07;;;12.80;99.90;;;;;;5051208;28;20727;-77
2024/03/02 10:40:32;;;;;;;4.57;4.18;;;12.80;99.90;;;;;;5058932;28;20312;-77
2024/03/02 10:43:02;;;;;;;6.90;5.03;;;12.80;99.90;;;;;;5057176;28;20720;-76
2024/03/02 10:45:29;;;;;;;4.97;4.25;;;12.80;99.90;;;;;;5059356;28;20300;-78
2024/03/02 10:47:56;;;;;;;5.43;3.60;;;12.90;99.90;;;;;;5061496;28;20245;-76
2024/03/02 10:50:24;;;;;;;4.90;4.25;;;13.00;99.90;;;;;;5056803;28;20221;-76
2024/03/02 10:52:52;;;;;;;5.18;4.38;;;13.00;99.90;;;;;;5057028;28;20261;-76
2024/03/02 10:55:19;;;;;;;6.18;4.18;;;12.90;99.90;;;;;;5057681;28;20253;-76
2024/03/02 10:57:52;;;;;;;3.95;3.55;;;12.90;99.90;;;;;;5053174;28;20214;-76
2024/03/02 11:00:25;;;;;;;4.20;3.30;;;12.90;99.90;;;;;;5072930;28;20589;-78
2024/03/02 11:02:56;;;;;;;3.92;3.53;;;12.90;99.90;;;;;;5076941;28;20592;-75
2024/03/02 11:05:28;;;;;;;4.63;3.63;;;13.00;99.90;;;;;;5074284;28;20233;-76
2024/03/02 11:08:00;;;;;;;4.53;3.97;;;13.10;99.90;;;;;;5075887;28;20225;-77
2024/03/02 11:10:30;;;;;;;4.38;3.60;;;13.40;99.90;;;;;;5078462;28;20275;-75
2024/03/02 11:13:02;;;;;;;6.25;4.18;;;13.40;99.90;;;;;;5076791;28;20225;-76
2024/03/02 11:15:30;;;;;;;4.43;4.03;;;13.50;99.90;;;;;;5077619;28;20719;-75
2024/03/02 11:17:58;;;;;;;3.72;2.92;;;13.40;99.90;;;;;;5074124;28;20217;-76
2024/03/02 11:20:26;;;;;;;4.10;3.70;;;13.60;99.90;;;;;;5077114;28;20253;-76
2024/03/02 11:22:53;;;;;;;3.78;3.47;;;13.80;99.90;;;;;;5072052;28;20985;-76
2024/03/02 11:25:28;;;;;;;3.40;3.10;;;13.80;99.90;;;;;;5076869;28;20209;-77
2024/03/02 11:28:02;;;;;;;3.15;2.70;;;14.00;99.90;;;;;;5073872;28;20251;-77
2024/03/02 11:30:52;;;;;;;3.67;2.65;;;13.70;99.90;;;;;;5077881;28;21006;-77
2024/03/02 11:33:27;;;;;;;4.57;2.90;;;13.60;99.90;;;;;;5077157;28;20789;-77
2024/03/02 11:35:54;;;;;;;4.22;2.70;;;13.50;99.90;;;;;;5074435;28;20554;-76
2024/03/02 11:38:21;;;;;;;4.22;3.15;;;13.10;99.90;;;;;;5074582;28;20225;-76
2024/03/02 11:40:50;;;;;;;7.20;3.38;;;12.90;99.90;;;;;;5077481;28;20206;-76
2024/03/02 11:43:17;;;;;;;6.40;3.58;;;12.80;99.90;;;;;;5077281;28;20217;-76
2024/03/02 11:45:45;;;;;;;6.50;3.50;;;12.70;99.90;;;;;;5078069;28;20302;-76
2024/03/02 11:48:14;;;;;;;3.58;2.90;;;12.60;99.90;;;;;;5076956;28;20224;-77
2024/03/02 11:50:44;;;;;;;4.97;3.00;;;12.60;99.90;;;;;;5075078;28;21077;-76
2024/03/02 11:53:12;;;;;;;3.70;3.30;;;12.70;99.90;;;;;;5078084;28;20228;-76
2024/03/02 11:55:41;;;;;;;3.20;2.90;;;12.80;99.90;;;;;;5080179;28;20208;-77
2024/03/02 11:58:09;;;;;;;3.78;3.22;;;12.80;99.90;;;;;;5075976;28;20235;-76
2024/03/02 12:00:36;;;;;;;3.78;3.42;;;12.80;99.90;;;;;;5079407;28;20222;-76
2024/03/02 12:03:06;;;;;;;4.85;3.53;;;12.70;99.90;;;;;;5083034;28;20214;-76
2024/03/02 12:05:34;;;;;;;4.57;3.72;;;12.70;99.90;;;;;;5080230;28;20289;-77
2024/03/02 12:08:03;;;;;;;4.10;3.13;;;12.80;99.90;;;;;;5075143;28;20946;-77
2024/03/02 12:10:31;;;;;;;3.55;3.13;;;12.90;99.90;;;;;;5081481;28;20275;-77
2024/03/02 12:12:59;;;;;;;3.83;3.33;;;12.90;99.90;;;;;;5087003;28;20253;-77
2024/03/02 12:15:29;;;;;;;4.05;3.63;;;13.00;99.90;;;;;;5081920;28;20600;-75
2024/03/02 12:17:57;;;;;;;5.13;3.63;;;13.10;99.90;;;;;;5080673;28;20237;-77
2024/03/02 12:20:25;;;;;;;3.55;3.25;;;13.20;99.90;;;;;;5080280;28;20213;-76
2024/03/02 12:22:53;;;;;;;3.03;2.83;;;13.30;99.90;;;;;;5082264;28;20653;-76
2024/03/02 12:25:21;;;;;;;5.25;3.00;;;13.50;99.90;;;;;;5081936;28;20201;-76
2024/03/02 12:27:50;;;;;;;3.25;2.95;;;13.50;99.90;;;;;;5075558;28;20356;-76
2024/03/02 12:30:18;;;;;;;3.38;3.08;;;13.60;99.90;;;;;;5079677;28;20330;-77
2024/03/02 12:32:47;;;;;;;4.90;2.65;;;13.70;99.90;;;;;;5080593;28;20318;-78
2024/03/02 12:35:15;;;;;;;3.78;2.78;;;13.70;99.90;;;;;;5082257;28;20193;-75
2024/03/02 12:37:46;;;;;;;3.97;2.65;;;13.60;99.90;;;;;;5080596;28;20221;-75
2024/03/02 12:40:13;;;;;;;3.65;2.35;;;13.60;99.90;;;;;;5079994;28;20241;-77
2024/03/02 12:42:41;;;;;;;4.55;2.53;;;13.60;99.90;;;;;;5081570;28;20217;-76
2024/03/02 12:45:09;;;;;;;4.20;2.22;;;13.50;99.90;;;;;;5081102;28;20209;-75
2024/03/02 12:47:36;;;;;;;3.10;1.95;;;13.50;99.90;;;;;;5081683;28;20236;-76
2024/03/02 12:50:06;;;;;;;3.22;2.30;;;13.30;99.90;;;;;;5080810;28;20279;-76
2024/03/02 12:52:33;;;;;;;2.80;2.42;;;13.30;99.90;;;;;;5081870;28;20218;-77
2024/03/02 12:55:03;;;;;;;2.85;2.00;;;13.30;99.90;;;;;;5083378;28;20193;-76
2024/03/02 12:57:31;;;;;;;4.60;2.08;;;13.10;99.90;;;;;;5077110;28;20302;-75